sensor_id;sensor_type;location;lat;lon;timestamp;P1;durP1;ratioP1;P2;durP2;ratioP2
65831;SDS011;52593;42.648;23.332;2022-12-24T00:01:46;33.60;;;12.80;;
65831;SDS011;52593;42.648;23.332;2022-12-24T00:04:11;31.35;;;13.23;;
65831;SDS011;52593;42.648;23.332;2022-12-24T00:06:36;32.10;;;13.60;;
65831;SDS011;52593;42.648;23.332;2022-12-24T00:09:02;31.37;;;13.03;;
65831;SDS011;52593;42.648;23.332;2022-12-24T00:11:28;28.93;;;13.17;;
65831;SDS011;52593;42.648;23.332;2022-12-24T00:13:53;31.17;;;13.13;;
65831;SDS011;52593;42.648;23.332;2022-12-24T00:16:18;32.47;;;13.47;;
65831;SDS011;52593;42.648;23.332;2022-12-24T00:18:44;31.73;;;13.07;;
65831;SDS011;52593;42.648;23.332;2022-12-24T00:21:09;30.83;;;13.13;;
65831;SDS011;52593;42.648;23.332;2022-12-24T00:23:35;32.03;;;13.57;;
65831;SDS011;52593;42.648;23.332;2022-12-24T00:26:00;32.67;;;12.95;;
65831;SDS011;52593;42.648;23.332;2022-12-24T00:28:25;32.27;;;12.87;;
65831;SDS011;52593;42.648;23.332;2022-12-24T00:30:51;31.67;;;13.33;;
65831;SDS011;52593;42.648;23.332;2022-12-24T00:33:16;32.87;;;13.43;;
65831;SDS011;52593;42.648;23.332;2022-12-24T00:35:42;30.00;;;12.60;;
65831;SDS011;52593;42.648;23.332;2022-12-24T00:38:07;32.08;;;13.25;;
65831;SDS011;52593;42.648;23.332;2022-12-24T00:40:33;38.20;;;14.33;;
65831;SDS011;52593;42.648;23.332;2022-12-24T00:42:59;40.28;;;15.65;;
65831;SDS011;52593;42.648;23.332;2022-12-24T00:45:24;36.73;;;14.60;;
65831;SDS011;52593;42.648;23.332;2022-12-24T00:47:51;33.42;;;13.68;;
65831;SDS011;52593;42.648;23.332;2022-12-24T00:50:17;41.75;;;15.20;;
65831;SDS011;52593;42.648;23.332;2022-12-24T00:52:43;39.97;;;14.73;;
65831;SDS011;52593;42.648;23.332;2022-12-24T00:55:08;42.50;;;15.37;;
65831;SDS011;52593;42.648;23.332;2022-12-24T00:57:33;42.23;;;14.73;;
65831;SDS011;52593;42.648;23.332;2022-12-24T00:59:59;51.70;;;17.53;;
65831;SDS011;52593;42.648;23.332;2022-12-24T01:02:24;46.22;;;15.63;;
65831;SDS011;52593;42.648;23.332;2022-12-24T01:04:50;47.63;;;16.07;;
65831;SDS011;52593;42.648;23.332;2022-12-24T01:07:34;41.33;;;14.68;;
65831;SDS011;52593;42.648;23.332;2022-12-24T01:10:00;48.70;;;16.27;;
65831;SDS011;52593;42.648;23.332;2022-12-24T01:12:25;41.63;;;14.70;;
65831;SDS011;52593;42.648;23.332;2022-12-24T01:14:51;39.67;;;15.40;;
65831;SDS011;52593;42.648;23.332;2022-12-24T01:17:17;40.43;;;14.67;;
65831;SDS011;52593;42.648;23.332;2022-12-24T01:19:42;38.93;;;14.43;;
65831;SDS011;52593;42.648;23.332;2022-12-24T01:22:08;36.63;;;14.10;;
65831;SDS011;52593;42.648;23.332;2022-12-24T01:24:33;37.53;;;13.45;;
65831;SDS011;52593;42.648;23.332;2022-12-24T01:26:58;38.27;;;14.63;;
65831;SDS011;52593;42.648;23.332;2022-12-24T01:29:24;39.00;;;14.13;;
65831;SDS011;52593;42.648;23.332;2022-12-24T01:31:49;39.23;;;14.60;;
65831;SDS011;52593;42.648;23.332;2022-12-24T01:34:14;36.20;;;14.73;;
65831;SDS011;52593;42.648;23.332;2022-12-24T01:36:40;39.85;;;14.48;;
65831;SDS011;52593;42.648;23.332;2022-12-24T01:39:05;37.63;;;13.70;;
65831;SDS011;52593;42.648;23.332;2022-12-24T01:41:31;36.83;;;14.03;;
65831;SDS011;52593;42.648;23.332;2022-12-24T01:44:28;32.33;;;12.48;;
65831;SDS011;52593;42.648;23.332;2022-12-24T01:47:15;33.30;;;13.77;;
65831;SDS011;52593;42.648;23.332;2022-12-24T01:49:50;35.33;;;12.87;;
65831;SDS011;52593;42.648;23.332;2022-12-24T01:52:23;36.13;;;14.15;;
65831;SDS011;52593;42.648;23.332;2022-12-24T01:54:53;29.88;;;12.18;;
65831;SDS011;52593;42.648;23.332;2022-12-24T01:57:26;35.88;;;12.55;;
65831;SDS011;52593;42.648;23.332;2022-12-24T01:59:56;32.78;;;12.73;;
65831;SDS011;52593;42.648;23.332;2022-12-24T02:02:25;30.20;;;11.90;;
65831;SDS011;52593;42.648;23.332;2022-12-24T02:05:02;33.15;;;12.88;;
65831;SDS011;52593;42.648;23.332;2022-12-24T02:07:32;32.50;;;12.88;;
65831;SDS011;52593;42.648;23.332;2022-12-24T02:09:59;32.38;;;12.93;;
65831;SDS011;52593;42.648;23.332;2022-12-24T02:12:26;31.35;;;12.07;;
65831;SDS011;52593;42.648;23.332;2022-12-24T02:14:54;29.40;;;11.57;;
65831;SDS011;52593;42.648;23.332;2022-12-24T02:17:22;28.23;;;11.95;;
65831;SDS011;52593;42.648;23.332;2022-12-24T02:31:49;27.67;;;11.73;;
65831;SDS011;52593;42.648;23.332;2022-12-24T02:34:05;26.17;;;10.93;;
65831;SDS011;52593;42.648;23.332;2022-12-24T02:36:39;26.73;;;11.18;;
65831;SDS011;52593;42.648;23.332;2022-12-24T02:39:11;25.95;;;10.55;;
65831;SDS011;52593;42.648;23.332;2022-12-24T02:41:44;34.63;;;11.80;;
65831;SDS011;52593;42.648;23.332;2022-12-24T02:47:15;23.03;;;10.27;;
65831;SDS011;52593;42.648;23.332;2022-12-24T02:49:44;27.70;;;11.05;;
65831;SDS011;52593;42.648;23.332;2022-12-24T02:52:27;25.98;;;10.82;;
65831;SDS011;52593;42.648;23.332;2022-12-24T02:54:52;25.00;;;10.93;;
65831;SDS011;52593;42.648;23.332;2022-12-24T02:57:21;23.47;;;10.73;;
65831;SDS011;52593;42.648;23.332;2022-12-24T03:00:03;24.00;;;10.05;;
65831;SDS011;52593;42.648;23.332;2022-12-24T03:10:57;25.50;;;10.45;;
65831;SDS011;52593;42.648;23.332;2022-12-24T03:13:27;25.60;;;11.13;;
65831;SDS011;52593;42.648;23.332;2022-12-24T03:15:53;26.88;;;11.27;;
65831;SDS011;52593;42.648;23.332;2022-12-24T03:18:23;25.65;;;10.40;;
65831;SDS011;52593;42.648;23.332;2022-12-24T03:20:55;25.17;;;10.95;;
65831;SDS011;52593;42.648;23.332;2022-12-24T03:23:24;25.83;;;10.77;;
65831;SDS011;52593;42.648;23.332;2022-12-24T03:25:50;27.42;;;10.93;;
65831;SDS011;52593;42.648;23.332;2022-12-24T03:28:16;26.67;;;11.20;;
65831;SDS011;52593;42.648;23.332;2022-12-24T03:30:44;25.90;;;10.70;;
65831;SDS011;52593;42.648;23.332;2022-12-24T03:33:13;21.63;;;9.30;;
65831;SDS011;52593;42.648;23.332;2022-12-24T03:35:39;23.00;;;10.35;;
65831;SDS011;52593;42.648;23.332;2022-12-24T03:38:05;28.33;;;11.23;;
65831;SDS011;52593;42.648;23.332;2022-12-24T03:40:31;25.77;;;10.40;;
65831;SDS011;52593;42.648;23.332;2022-12-24T03:42:56;26.25;;;11.00;;
65831;SDS011;52593;42.648;23.332;2022-12-24T03:45:22;24.27;;;10.33;;
65831;SDS011;52593;42.648;23.332;2022-12-24T03:47:47;24.87;;;9.97;;
65831;SDS011;52593;42.648;23.332;2022-12-24T03:50:13;23.27;;;10.00;;
65831;SDS011;52593;42.648;23.332;2022-12-24T03:52:38;23.93;;;9.53;;
65831;SDS011;52593;42.648;23.332;2022-12-24T03:55:04;27.80;;;10.10;;
65831;SDS011;52593;42.648;23.332;2022-12-24T03:57:29;28.58;;;10.45;;
65831;SDS011;52593;42.648;23.332;2022-12-24T03:59:55;21.23;;;8.70;;
65831;SDS011;52593;42.648;23.332;2022-12-24T04:02:20;26.73;;;10.10;;
65831;SDS011;52593;42.648;23.332;2022-12-24T04:04:46;24.50;;;9.40;;
65831;SDS011;52593;42.648;23.332;2022-12-24T04:07:11;23.23;;;9.35;;
65831;SDS011;52593;42.648;23.332;2022-12-24T04:09:37;23.63;;;9.13;;
65831;SDS011;52593;42.648;23.332;2022-12-24T04:12:03;26.08;;;10.30;;
65831;SDS011;52593;42.648;23.332;2022-12-24T04:14:28;23.07;;;9.57;;
65831;SDS011;52593;42.648;23.332;2022-12-24T04:16:54;26.60;;;9.60;;
65831;SDS011;52593;42.648;23.332;2022-12-24T04:19:19;22.87;;;9.67;;
65831;SDS011;52593;42.648;23.332;2022-12-24T04:21:45;21.38;;;9.52;;
65831;SDS011;52593;42.648;23.332;2022-12-24T04:24:11;20.50;;;9.20;;
65831;SDS011;52593;42.648;23.332;2022-12-24T04:26:36;21.13;;;9.00;;
65831;SDS011;52593;42.648;23.332;2022-12-24T04:29:01;23.57;;;9.80;;
65831;SDS011;52593;42.648;23.332;2022-12-24T04:31:27;21.43;;;9.37;;
65831;SDS011;52593;42.648;23.332;2022-12-24T04:33:52;24.37;;;10.10;;
65831;SDS011;52593;42.648;23.332;2022-12-24T04:36:18;23.30;;;9.70;;
65831;SDS011;52593;42.648;23.332;2022-12-24T04:38:45;24.73;;;9.70;;
65831;SDS011;52593;42.648;23.332;2022-12-24T04:41:13;21.92;;;9.23;;
65831;SDS011;52593;42.648;23.332;2022-12-24T04:43:43;21.15;;;9.23;;
65831;SDS011;52593;42.648;23.332;2022-12-24T04:46:10;22.57;;;9.80;;
65831;SDS011;52593;42.648;23.332;2022-12-24T04:48:42;22.90;;;9.40;;
65831;SDS011;52593;42.648;23.332;2022-12-24T04:51:09;23.40;;;11.02;;
65831;SDS011;52593;42.648;23.332;2022-12-24T04:53:35;20.60;;;9.52;;
65831;SDS011;52593;42.648;23.332;2022-12-24T04:56:01;24.02;;;9.90;;
65831;SDS011;52593;42.648;23.332;2022-12-24T04:58:26;23.67;;;9.40;;
65831;SDS011;52593;42.648;23.332;2022-12-24T05:00:52;23.67;;;11.07;;
65831;SDS011;52593;42.648;23.332;2022-12-24T05:03:18;27.00;;;10.85;;
65831;SDS011;52593;42.648;23.332;2022-12-24T05:05:44;27.67;;;11.23;;
65831;SDS011;52593;42.648;23.332;2022-12-24T05:08:10;26.75;;;10.38;;
65831;SDS011;52593;42.648;23.332;2022-12-24T05:10:35;24.50;;;10.70;;
65831;SDS011;52593;42.648;23.332;2022-12-24T05:13:01;28.20;;;11.50;;
65831;SDS011;52593;42.648;23.332;2022-12-24T05:15:26;25.23;;;10.07;;
65831;SDS011;52593;42.648;23.332;2022-12-24T05:17:52;30.30;;;11.10;;
65831;SDS011;52593;42.648;23.332;2022-12-24T05:20:17;31.70;;;12.67;;
65831;SDS011;52593;42.648;23.332;2022-12-24T05:22:42;28.33;;;12.37;;
65831;SDS011;52593;42.648;23.332;2022-12-24T05:25:28;29.05;;;12.52;;
65831;SDS011;52593;42.648;23.332;2022-12-24T05:28:17;29.75;;;11.32;;
65831;SDS011;52593;42.648;23.332;2022-12-24T05:30:42;26.37;;;11.63;;
65831;SDS011;52593;42.648;23.332;2022-12-24T05:33:08;28.13;;;12.03;;
65831;SDS011;52593;42.648;23.332;2022-12-24T05:35:33;26.35;;;11.55;;
65831;SDS011;52593;42.648;23.332;2022-12-24T05:37:59;24.27;;;11.30;;
65831;SDS011;52593;42.648;23.332;2022-12-24T05:40:24;24.63;;;11.23;;
65831;SDS011;52593;42.648;23.332;2022-12-24T05:42:49;27.13;;;10.87;;
65831;SDS011;52593;42.648;23.332;2022-12-24T05:45:15;23.98;;;10.77;;
65831;SDS011;52593;42.648;23.332;2022-12-24T05:47:40;32.37;;;12.13;;
65831;SDS011;52593;42.648;23.332;2022-12-24T05:50:06;32.10;;;13.00;;
65831;SDS011;52593;42.648;23.332;2022-12-24T05:52:32;41.25;;;15.00;;
65831;SDS011;52593;42.648;23.332;2022-12-24T05:54:57;32.97;;;13.73;;
65831;SDS011;52593;42.648;23.332;2022-12-24T05:57:23;33.80;;;12.90;;
65831;SDS011;52593;42.648;23.332;2022-12-24T05:59:48;35.03;;;13.40;;
65831;SDS011;52593;42.648;23.332;2022-12-24T06:02:14;27.70;;;11.40;;
65831;SDS011;52593;42.648;23.332;2022-12-24T06:04:39;26.20;;;11.53;;
65831;SDS011;52593;42.648;23.332;2022-12-24T06:07:04;25.03;;;9.63;;
65831;SDS011;52593;42.648;23.332;2022-12-24T06:09:30;25.27;;;10.93;;
65831;SDS011;52593;42.648;23.332;2022-12-24T06:11:55;22.87;;;10.10;;
65831;SDS011;52593;42.648;23.332;2022-12-24T06:14:21;24.30;;;10.40;;
65831;SDS011;52593;42.648;23.332;2022-12-24T06:16:46;26.63;;;10.40;;
65831;SDS011;52593;42.648;23.332;2022-12-24T06:19:11;26.20;;;9.73;;
65831;SDS011;52593;42.648;23.332;2022-12-24T06:21:37;21.03;;;9.77;;
65831;SDS011;52593;42.648;23.332;2022-12-24T06:24:02;21.48;;;9.50;;
65831;SDS011;52593;42.648;23.332;2022-12-24T06:26:28;23.93;;;10.10;;
65831;SDS011;52593;42.648;23.332;2022-12-24T06:28:53;22.43;;;9.33;;
65831;SDS011;52593;42.648;23.332;2022-12-24T06:31:19;23.80;;;9.93;;
65831;SDS011;52593;42.648;23.332;2022-12-24T06:33:46;21.27;;;10.23;;
65831;SDS011;52593;42.648;23.332;2022-12-24T06:36:13;22.88;;;9.75;;
65831;SDS011;52593;42.648;23.332;2022-12-24T06:38:44;21.38;;;9.77;;
65831;SDS011;52593;42.648;23.332;2022-12-24T06:41:10;22.58;;;9.45;;
65831;SDS011;52593;42.648;23.332;2022-12-24T06:43:36;24.50;;;10.03;;
65831;SDS011;52593;42.648;23.332;2022-12-24T06:46:02;26.80;;;9.67;;
65831;SDS011;52593;42.648;23.332;2022-12-24T06:48:28;20.38;;;9.30;;
65831;SDS011;52593;42.648;23.332;2022-12-24T06:50:54;22.53;;;10.20;;
65831;SDS011;52593;42.648;23.332;2022-12-24T06:53:19;20.95;;;9.70;;
65831;SDS011;52593;42.648;23.332;2022-12-24T06:55:44;22.87;;;9.90;;
65831;SDS011;52593;42.648;23.332;2022-12-24T06:58:10;30.50;;;10.27;;
65831;SDS011;52593;42.648;23.332;2022-12-24T07:00:36;24.40;;;10.93;;
65831;SDS011;52593;42.648;23.332;2022-12-24T07:03:01;27.67;;;11.52;;
65831;SDS011;52593;42.648;23.332;2022-12-24T07:05:27;26.80;;;11.93;;
65831;SDS011;52593;42.648;23.332;2022-12-24T07:07:52;25.70;;;12.35;;
65831;SDS011;52593;42.648;23.332;2022-12-24T07:10:18;26.93;;;11.97;;
65831;SDS011;52593;42.648;23.332;2022-12-24T07:12:45;29.02;;;12.43;;
65831;SDS011;52593;42.648;23.332;2022-12-24T07:15:11;31.00;;;13.03;;
65831;SDS011;52593;42.648;23.332;2022-12-24T07:17:37;31.00;;;13.13;;
65831;SDS011;52593;42.648;23.332;2022-12-24T07:20:03;30.58;;;12.27;;
65831;SDS011;52593;42.648;23.332;2022-12-24T07:22:30;25.08;;;10.60;;
65831;SDS011;52593;42.648;23.332;2022-12-24T07:24:55;23.83;;;10.70;;
65831;SDS011;52593;42.648;23.332;2022-12-24T07:27:21;26.87;;;11.13;;
65831;SDS011;52593;42.648;23.332;2022-12-24T07:29:46;26.23;;;10.73;;
65831;SDS011;52593;42.648;23.332;2022-12-24T07:32:12;23.85;;;10.70;;
65831;SDS011;52593;42.648;23.332;2022-12-24T07:34:38;27.90;;;11.60;;
65831;SDS011;52593;42.648;23.332;2022-12-24T07:37:04;33.60;;;14.10;;
65831;SDS011;52593;42.648;23.332;2022-12-24T07:39:35;30.60;;;13.85;;
65831;SDS011;52593;42.648;23.332;2022-12-24T07:42:06;31.58;;;14.35;;
65831;SDS011;52593;42.648;23.332;2022-12-24T07:44:32;39.27;;;15.70;;
65831;SDS011;52593;42.648;23.332;2022-12-24T07:46:58;49.83;;;21.02;;
65831;SDS011;52593;42.648;23.332;2022-12-24T07:49:23;43.27;;;19.60;;
65831;SDS011;52593;42.648;23.332;2022-12-24T07:51:49;42.15;;;18.92;;
65831;SDS011;52593;42.648;23.332;2022-12-24T07:54:14;46.03;;;20.97;;
65831;SDS011;52593;42.648;23.332;2022-12-24T07:56:40;46.10;;;19.83;;
65831;SDS011;52593;42.648;23.332;2022-12-24T07:59:06;43.85;;;18.73;;
65831;SDS011;52593;42.648;23.332;2022-12-24T08:01:31;46.70;;;19.43;;
65831;SDS011;52593;42.648;23.332;2022-12-24T08:03:57;44.33;;;19.30;;
65831;SDS011;52593;42.648;23.332;2022-12-24T08:06:22;42.50;;;19.00;;
65831;SDS011;52593;42.648;23.332;2022-12-24T08:08:47;41.00;;;17.80;;
65831;SDS011;52593;42.648;23.332;2022-12-24T08:11:13;37.50;;;16.33;;
65831;SDS011;52593;42.648;23.332;2022-12-24T08:13:38;38.97;;;17.10;;
65831;SDS011;52593;42.648;23.332;2022-12-24T08:16:04;35.83;;;16.63;;
65831;SDS011;52593;42.648;23.332;2022-12-24T08:18:30;37.13;;;16.00;;
65831;SDS011;52593;42.648;23.332;2022-12-24T08:20:55;34.17;;;15.53;;
65831;SDS011;52593;42.648;23.332;2022-12-24T08:23:21;31.73;;;15.57;;
65831;SDS011;52593;42.648;23.332;2022-12-24T08:25:46;33.28;;;15.27;;
65831;SDS011;52593;42.648;23.332;2022-12-24T08:28:13;31.60;;;15.13;;
65831;SDS011;52593;42.648;23.332;2022-12-24T08:30:40;33.33;;;15.30;;
65831;SDS011;52593;42.648;23.332;2022-12-24T08:33:06;33.63;;;15.95;;
65831;SDS011;52593;42.648;23.332;2022-12-24T08:35:32;32.47;;;15.65;;
65831;SDS011;52593;42.648;23.332;2022-12-24T08:37:57;34.97;;;16.40;;
65831;SDS011;52593;42.648;23.332;2022-12-24T08:40:23;38.50;;;16.73;;
65831;SDS011;52593;42.648;23.332;2022-12-24T08:42:48;34.57;;;16.77;;
65831;SDS011;52593;42.648;23.332;2022-12-24T08:45:14;25.33;;;11.68;;
65831;SDS011;52593;42.648;23.332;2022-12-24T08:47:39;23.47;;;10.33;;
65831;SDS011;52593;42.648;23.332;2022-12-24T08:50:05;22.13;;;9.57;;
65831;SDS011;52593;42.648;23.332;2022-12-24T08:52:31;23.00;;;9.27;;
65831;SDS011;52593;42.648;23.332;2022-12-24T08:54:57;20.33;;;9.02;;
65831;SDS011;52593;42.648;23.332;2022-12-24T08:57:23;20.50;;;8.93;;
65831;SDS011;52593;42.648;23.332;2022-12-24T08:59:48;22.63;;;9.10;;
65831;SDS011;52593;42.648;23.332;2022-12-24T09:02:14;20.17;;;8.30;;
65831;SDS011;52593;42.648;23.332;2022-12-24T09:04:39;32.90;;;14.40;;
65831;SDS011;52593;42.648;23.332;2022-12-24T09:07:05;36.90;;;16.07;;
65831;SDS011;52593;42.648;23.332;2022-12-24T09:09:32;43.63;;;18.38;;
65831;SDS011;52593;42.648;23.332;2022-12-24T09:11:57;38.90;;;17.58;;
65831;SDS011;52593;42.648;23.332;2022-12-24T09:14:23;38.40;;;18.00;;
65831;SDS011;52593;42.648;23.332;2022-12-24T09:16:48;36.37;;;16.83;;
65831;SDS011;52593;42.648;23.332;2022-12-24T09:19:13;35.60;;;17.20;;
65831;SDS011;52593;42.648;23.332;2022-12-24T09:21:39;41.30;;;17.07;;
65831;SDS011;52593;42.648;23.332;2022-12-24T09:24:04;35.13;;;15.60;;
65831;SDS011;52593;42.648;23.332;2022-12-24T09:26:30;37.27;;;16.03;;
65831;SDS011;52593;42.648;23.332;2022-12-24T09:28:56;35.30;;;15.00;;
65831;SDS011;52593;42.648;23.332;2022-12-24T09:31:23;34.90;;;14.40;;
65831;SDS011;52593;42.648;23.332;2022-12-24T09:33:49;32.20;;;15.03;;
65831;SDS011;52593;42.648;23.332;2022-12-24T09:36:15;34.08;;;14.73;;
65831;SDS011;52593;42.648;23.332;2022-12-24T09:38:42;33.05;;;15.02;;
65831;SDS011;52593;42.648;23.332;2022-12-24T09:41:12;32.77;;;14.30;;
65831;SDS011;52593;42.648;23.332;2022-12-24T09:43:45;30.95;;;13.73;;
65831;SDS011;52593;42.648;23.332;2022-12-24T09:46:46;31.48;;;14.30;;
65831;SDS011;52593;42.648;23.332;2022-12-24T09:49:09;35.40;;;15.60;;
65831;SDS011;52593;42.648;23.332;2022-12-24T09:54:14;30.67;;;14.50;;
65831;SDS011;52593;42.648;23.332;2022-12-24T09:56:47;30.65;;;15.23;;
65831;SDS011;52593;42.648;23.332;2022-12-24T09:59:13;42.53;;;18.35;;
65831;SDS011;52593;42.648;23.332;2022-12-24T10:01:41;41.65;;;17.48;;
65831;SDS011;52593;42.648;23.332;2022-12-24T10:04:13;39.23;;;17.43;;
65831;SDS011;52593;42.648;23.332;2022-12-24T10:06:53;40.58;;;18.55;;
65831;SDS011;52593;42.648;23.332;2022-12-24T10:09:31;40.00;;;17.53;;
65831;SDS011;52593;42.648;23.332;2022-12-24T10:12:21;39.80;;;16.52;;
65831;SDS011;52593;42.648;23.332;2022-12-24T10:23:01;59.43;;;25.83;;
65831;SDS011;52593;42.648;23.332;2022-12-24T10:28:23;68.68;;;31.67;;
65831;SDS011;52593;42.648;23.332;2022-12-24T10:31:08;89.28;;;37.28;;
65831;SDS011;52593;42.648;23.332;2022-12-24T10:33:44;91.50;;;38.80;;
65831;SDS011;52593;42.648;23.332;2022-12-24T10:36:17;92.80;;;39.67;;
65831;SDS011;52593;42.648;23.332;2022-12-24T10:38:46;83.95;;;37.75;;
65831;SDS011;52593;42.648;23.332;2022-12-24T10:41:11;86.83;;;38.23;;
65831;SDS011;52593;42.648;23.332;2022-12-24T10:43:38;85.70;;;37.53;;
65831;SDS011;52593;42.648;23.332;2022-12-24T10:46:12;89.65;;;37.08;;
65831;SDS011;52593;42.648;23.332;2022-12-24T10:48:43;82.57;;;36.75;;
65831;SDS011;52593;42.648;23.332;2022-12-24T10:54:12;70.77;;;28.20;;
65831;SDS011;52593;42.648;23.332;2022-12-24T10:56:45;63.40;;;28.92;;
65831;SDS011;52593;42.648;23.332;2022-12-24T11:01:58;71.75;;;29.05;;
65831;SDS011;52593;42.648;23.332;2022-12-24T11:04:26;68.80;;;29.35;;
65831;SDS011;52593;42.648;23.332;2022-12-24T11:07:03;63.57;;;28.60;;
65831;SDS011;52593;42.648;23.332;2022-12-24T11:09:31;64.25;;;27.77;;
65831;SDS011;52593;42.648;23.332;2022-12-24T11:12:02;66.97;;;28.05;;
65831;SDS011;52593;42.648;23.332;2022-12-24T11:14:33;62.05;;;28.90;;
65831;SDS011;52593;42.648;23.332;2022-12-24T11:17:01;64.45;;;28.33;;
65831;SDS011;52593;42.648;23.332;2022-12-24T11:19:32;60.97;;;28.37;;
65831;SDS011;52593;42.648;23.332;2022-12-24T11:22:06;64.25;;;28.20;;
65831;SDS011;52593;42.648;23.332;2022-12-24T11:24:41;66.18;;;28.50;;
65831;SDS011;52593;42.648;23.332;2022-12-24T11:27:22;63.38;;;28.23;;
65831;SDS011;52593;42.648;23.332;2022-12-24T11:32:39;69.50;;;31.23;;
65831;SDS011;52593;42.648;23.332;2022-12-24T11:35:07;71.47;;;30.98;;
65831;SDS011;52593;42.648;23.332;2022-12-24T11:37:39;68.03;;;29.35;;
65831;SDS011;52593;42.648;23.332;2022-12-24T11:40:05;62.78;;;29.17;;
65831;SDS011;52593;42.648;23.332;2022-12-24T11:42:43;67.23;;;29.20;;
65831;SDS011;52593;42.648;23.332;2022-12-24T11:45:21;66.95;;;30.25;;
65831;SDS011;52593;42.648;23.332;2022-12-24T11:47:48;61.73;;;28.70;;
65831;SDS011;52593;42.648;23.332;2022-12-24T12:03:53;48.58;;;18.92;;
65831;SDS011;52593;42.648;23.332;2022-12-24T12:08:53;47.75;;;22.98;;
65831;SDS011;52593;42.648;23.332;2022-12-24T12:11:21;53.35;;;24.25;;
65831;SDS011;52593;42.648;23.332;2022-12-24T12:13:49;54.73;;;24.67;;
65831;SDS011;52593;42.648;23.332;2022-12-24T12:16:17;58.72;;;25.63;;
65831;SDS011;52593;42.648;23.332;2022-12-24T12:18:58;53.25;;;25.45;;
65831;SDS011;52593;42.648;23.332;2022-12-24T12:21:41;57.47;;;25.38;;
65831;SDS011;52593;42.648;23.332;2022-12-24T12:24:15;65.87;;;30.00;;
65831;SDS011;52593;42.648;23.332;2022-12-24T12:26:46;62.05;;;27.70;;
65831;SDS011;52593;42.648;23.332;2022-12-24T12:29:29;58.22;;;27.65;;
65831;SDS011;52593;42.648;23.332;2022-12-24T12:32:09;62.63;;;27.30;;
65831;SDS011;52593;42.648;23.332;2022-12-24T12:34:42;62.63;;;28.27;;
65831;SDS011;52593;42.648;23.332;2022-12-24T12:37:34;57.73;;;26.30;;
65831;SDS011;52593;42.648;23.332;2022-12-24T12:40:13;62.03;;;27.48;;
65831;SDS011;52593;42.648;23.332;2022-12-24T12:42:40;64.90;;;29.33;;
65831;SDS011;52593;42.648;23.332;2022-12-24T12:48:20;59.70;;;27.90;;
65831;SDS011;52593;42.648;23.332;2022-12-24T12:51:18;57.13;;;26.80;;
65831;SDS011;52593;42.648;23.332;2022-12-24T12:54:29;55.40;;;27.27;;
65831;SDS011;52593;42.648;23.332;2022-12-24T12:56:45;58.40;;;26.80;;
65831;SDS011;52593;42.648;23.332;2022-12-24T13:10:11;55.78;;;26.63;;
65831;SDS011;52593;42.648;23.332;2022-12-24T13:20:49;58.00;;;26.25;;
65831;SDS011;52593;42.648;23.332;2022-12-24T13:23:17;56.08;;;26.85;;
65831;SDS011;52593;42.648;23.332;2022-12-24T13:25:46;54.58;;;26.15;;
65831;SDS011;52593;42.648;23.332;2022-12-24T13:30:39;54.73;;;25.80;;
65831;SDS011;52593;42.648;23.332;2022-12-24T13:33:08;59.27;;;26.83;;
65831;SDS011;52593;42.648;23.332;2022-12-24T13:35:36;52.22;;;24.90;;
65831;SDS011;52593;42.648;23.332;2022-12-24T13:40:53;56.33;;;25.80;;
65831;SDS011;52593;42.648;23.332;2022-12-24T13:43:19;56.10;;;25.85;;
65831;SDS011;52593;42.648;23.332;2022-12-24T13:45:46;58.90;;;26.67;;
65831;SDS011;52593;42.648;23.332;2022-12-24T13:48:29;57.90;;;26.83;;
65831;SDS011;52593;42.648;23.332;2022-12-24T13:50:57;58.42;;;26.85;;
65831;SDS011;52593;42.648;23.332;2022-12-24T13:53:41;56.63;;;26.00;;
65831;SDS011;52593;42.648;23.332;2022-12-24T14:01:36;54.75;;;24.27;;
65831;SDS011;52593;42.648;23.332;2022-12-24T14:04:06;56.90;;;25.88;;
65831;SDS011;52593;42.648;23.332;2022-12-24T14:06:42;84.22;;;37.78;;
65831;SDS011;52593;42.648;23.332;2022-12-24T14:09:16;76.67;;;34.83;;
65831;SDS011;52593;42.648;23.332;2022-12-24T14:14:38;76.68;;;33.17;;
65831;SDS011;52593;42.648;23.332;2022-12-24T14:17:20;73.32;;;32.70;;
65831;SDS011;52593;42.648;23.332;2022-12-24T14:19:50;72.78;;;32.80;;
65831;SDS011;52593;42.648;23.332;2022-12-24T14:24:50;79.82;;;35.70;;
65831;SDS011;52593;42.648;23.332;2022-12-24T14:28:06;82.38;;;36.50;;
65831;SDS011;52593;42.648;23.332;2022-12-24T14:30:07;75.63;;;34.22;;
65831;SDS011;52593;42.648;23.332;2022-12-24T14:32:36;75.90;;;36.53;;
65831;SDS011;52593;42.648;23.332;2022-12-24T14:35:10;78.80;;;34.37;;
65831;SDS011;52593;42.648;23.332;2022-12-24T14:37:47;76.70;;;33.85;;
65831;SDS011;52593;42.648;23.332;2022-12-24T14:40:16;80.72;;;34.65;;
65831;SDS011;52593;42.648;23.332;2022-12-24T14:45:36;84.93;;;41.55;;
65831;SDS011;52593;42.648;23.332;2022-12-24T14:48:20;80.07;;;34.50;;
65831;SDS011;52593;42.648;23.332;2022-12-24T14:51:09;82.50;;;36.28;;
65831;SDS011;52593;42.648;23.332;2022-12-24T14:54:26;81.30;;;35.85;;
65831;SDS011;52593;42.648;23.332;2022-12-24T14:56:31;76.70;;;35.05;;
65831;SDS011;52593;42.648;23.332;2022-12-24T14:58:57;82.40;;;37.20;;
65831;SDS011;52593;42.648;23.332;2022-12-24T15:01:29;79.53;;;35.55;;
65831;SDS011;52593;42.648;23.332;2022-12-24T15:03:59;55.08;;;25.13;;
65831;SDS011;52593;42.648;23.332;2022-12-24T15:06:24;57.35;;;23.38;;
65831;SDS011;52593;42.648;23.332;2022-12-24T15:08:51;41.17;;;17.33;;
65831;SDS011;52593;42.648;23.332;2022-12-24T15:11:18;22.33;;;9.85;;
65831;SDS011;52593;42.648;23.332;2022-12-24T15:13:46;34.45;;;15.80;;
65831;SDS011;52593;42.648;23.332;2022-12-24T15:16:18;38.42;;;19.42;;
65831;SDS011;52593;42.648;23.332;2022-12-24T15:18:50;18.37;;;7.97;;
65831;SDS011;52593;42.648;23.332;2022-12-24T15:21:27;26.90;;;10.30;;
65831;SDS011;52593;42.648;23.332;2022-12-24T15:23:55;18.85;;;7.50;;
65831;SDS011;52593;42.648;23.332;2022-12-24T15:26:22;21.70;;;9.65;;
65831;SDS011;52593;42.648;23.332;2022-12-24T15:28:48;16.88;;;7.72;;
65831;SDS011;52593;42.648;23.332;2022-12-24T15:31:15;16.63;;;7.73;;
65831;SDS011;52593;42.648;23.332;2022-12-24T15:33:44;17.13;;;7.47;;
65831;SDS011;52593;42.648;23.332;2022-12-24T15:36:14;23.33;;;12.27;;
65831;SDS011;52593;42.648;23.332;2022-12-24T15:38:42;24.02;;;12.30;;
65831;SDS011;52593;42.648;23.332;2022-12-24T15:43:49;27.17;;;15.33;;
65831;SDS011;52593;42.648;23.332;2022-12-24T15:46:23;22.25;;;9.95;;
65831;SDS011;52593;42.648;23.332;2022-12-24T15:48:51;28.70;;;12.68;;
65831;SDS011;52593;42.648;23.332;2022-12-24T15:53:55;28.67;;;15.15;;
65831;SDS011;52593;42.648;23.332;2022-12-24T15:56:36;19.43;;;8.90;;
65831;SDS011;52593;42.648;23.332;2022-12-24T15:59:37;21.10;;;9.43;;
65831;SDS011;52593;42.648;23.332;2022-12-24T16:02:26;28.33;;;10.73;;
65831;SDS011;52593;42.648;23.332;2022-12-24T16:10:34;20.60;;;8.50;;
65831;SDS011;52593;42.648;23.332;2022-12-24T16:13:02;24.75;;;13.63;;
65831;SDS011;52593;42.648;23.332;2022-12-24T16:15:40;19.48;;;8.68;;